Time;durP1;ratioP1;P1;durP2;ratioP2;P2;SDS_P1;SDS_P2;PMS_P1;PMS_P2;Temp;Humidity;BMP_temperature;BMP_pressure;BME280_temperature;BME280_humidity;BME280_pressure;Samples;Min_cycle;Max_cycle;Signal;HPM_P1;HPM_P2
2023/03/11 00:01:53;;;;;;;22.67;4.68;;;0.50;99.90;;;;;;5113883;28;20039;-76
2023/03/11 00:04:18;;;;;;;20.95;4.35;;;0.50;99.90;;;;;;5095416;28;20118;-74
2023/03/11 00:06:44;;;;;;;21.38;4.00;;;-1.40;99.90;;;;;;5113818;28;20043;-75
2023/03/11 00:09:10;;;;;;;26.02;4.22;;;0.40;99.90;;;;;;5118137;28;20115;-76
2023/03/11 00:11:36;;;;;;;16.77;3.10;;;0.20;99.90;;;;;;5120915;28;20131;-75
2023/03/11 00:14:01;;;;;;;17.45;3.00;;;0.20;99.90;;;;;;5121354;28;20039;-76
2023/03/11 00:16:27;;;;;;;20.63;3.55;;;0.20;99.90;;;;;;5085439;28;20126;-74
2023/03/11 00:18:53;;;;;;;26.48;2.40;;;0.40;99.90;;;;;;5119115;28;20044;-74
2023/03/11 00:21:19;;;;;;;16.40;2.42;;;0.20;99.90;;;;;;5116945;28;20099;-75
2023/03/11 00:23:45;;;;;;;17.65;3.45;;;0.10;99.90;;;;;;5115985;28;20044;-74
2023/03/11 00:26:11;;;;;;;25.25;2.60;;;0.40;99.90;;;;;;5114173;28;20153;-74
2023/03/11 00:28:37;;;;;;;26.33;2.50;;;0.40;99.90;;;;;;5113495;28;20039;-75
2023/03/11 00:31:03;;;;;;;21.52;2.50;;;0.20;99.90;;;;;;5095259;28;20049;-75
2023/03/11 00:33:29;;;;;;;16.63;2.58;;;0.30;99.90;;;;;;5095507;28;20073;-75
2023/03/11 00:35:55;;;;;;;13.85;2.05;;;0.50;99.90;;;;;;5113465;28;20390;-75
2023/03/11 00:38:20;;;;;;;10.52;2.20;;;0.20;99.90;;;;;;5094764;28;20087;-75
2023/03/11 00:40:47;;;;;;;23.20;2.40;;;0.50;99.90;;;;;;5095407;28;20100;-75
2023/03/11 00:43:14;;;;;;;19.38;1.73;;;0.40;99.90;;;;;;5095126;28;20039;-73
2023/03/11 00:45:39;;;;;;;12.32;1.70;;;0.40;99.90;;;;;;5095301;28;20051;-74
2023/03/11 00:48:06;;;;;;;15.63;2.05;;;0.30;99.90;;;;;;5112934;28;20380;-75
2023/03/11 00:50:34;;;;;;;16.63;1.90;;;0.40;99.90;;;;;;5113209;28;20046;-73
2023/03/11 00:53:01;;;;;;;17.40;1.92;;;0.20;99.90;;;;;;5113044;28;20522;-73
2023/03/11 00:55:29;;;;;;;20.00;2.50;;;0.20;99.90;;;;;;5112820;28;20047;-73
2023/03/11 00:57:57;;;;;;;11.70;1.85;;;0.10;99.90;;;;;;5094582;28;20407;-74
2023/03/11 01:00:24;;;;;;;13.45;1.65;;;0.40;99.90;;;;;;5094579;28;20039;-73
2023/03/11 01:02:52;;;;;;;18.67;2.80;;;0.50;99.90;;;;;;5095035;28;20085;-74
2023/03/11 01:05:20;;;;;;;18.02;2.10;;;0.50;99.90;;;;;;5112423;28;20381;-75
2023/03/11 01:07:46;;;;;;;12.43;1.63;;;0.50;99.90;;;;;;5095102;28;20147;-74
2023/03/11 01:10:13;;;;;;;27.98;2.75;;;0.50;99.90;;;;;;5097856;28;20056;-74
2023/03/11 01:12:39;;;;;;;19.80;1.83;;;0.10;99.90;;;;;;5117051;28;20039;-74
2023/03/11 01:15:08;;;;;;;16.85;1.80;;;0.30;99.90;;;;;;5099070;28;20372;-74
2023/03/11 01:17:34;;;;;;;20.30;2.10;;;0.30;99.90;;;;;;5117236;28;20398;-74
2023/03/11 01:20:00;;;;;;;12.50;2.78;;;0.20;99.90;;;;;;5098686;28;20116;-72
2023/03/11 01:22:26;;;;;;;16.85;3.30;;;0.50;99.90;;;;;;5116740;28;20039;-73
2023/03/11 01:24:52;;;;;;;18.10;4.30;;;0.00;99.90;;;;;;5098867;28;20499;-74
2023/03/11 01:27:17;;;;;;;15.38;1.90;;;0.50;99.90;;;;;;5116844;28;20050;-74
2023/03/11 01:29:43;;;;;;;14.50;1.83;;;0.40;99.90;;;;;;5098761;28;20039;-73
2023/03/11 01:32:09;;;;;;;9.65;1.45;;;0.50;99.90;;;;;;5116929;28;20051;-73
2023/03/11 01:34:35;;;;;;;7.93;1.40;;;0.60;99.90;;;;;;5098205;28;20040;-76
2023/03/11 01:37:02;;;;;;;13.80;2.20;;;-0.10;99.90;;;;;;5116881;28;20052;-74
2023/03/11 01:39:28;;;;;;;24.80;1.95;;;-0.10;99.90;;;;;;5081300;28;20432;-72
2023/03/11 01:41:55;;;;;;;9.95;1.48;;;0.50;99.90;;;;;;5116448;28;20040;-74
2023/03/11 01:44:21;;;;;;;16.27;1.55;;;0.50;99.90;;;;;;5116246;28;20077;-73
2023/03/11 01:46:52;;;;;;;14.30;1.80;;;0.50;99.90;;;;;;5116561;28;20052;-73
2023/03/11 01:49:21;;;;;;;17.05;1.73;;;-0.20;99.90;;;;;;5098055;28;20043;-74
2023/03/11 01:52:02;;;;;;;14.57;2.38;;;0.50;99.90;;;;;;5116615;28;20046;-74
2023/03/11 01:54:32;;;;;;;10.00;1.45;;;-0.10;99.90;;;;;;5116144;28;20054;-74
2023/03/11 01:57:00;;;;;;;13.43;1.30;;;-0.20;99.90;;;;;;5116167;28;20511;-74
2023/03/11 01:59:29;;;;;;;15.93;1.95;;;-0.30;99.90;;;;;;5081245;28;20066;-73
2023/03/11 02:02:17;;;;;;;13.02;1.45;;;-0.20;99.90;;;;;;5081544;28;20118;-74
2023/03/11 02:04:43;;;;;;;16.38;1.55;;;-0.10;99.90;;;;;;5116875;28;20043;-75
2023/03/11 02:07:11;;;;;;;11.00;1.20;;;0.20;99.90;;;;;;5081610;28;20534;-74
2023/03/11 02:09:37;;;;;;;6.85;1.35;;;0.30;99.90;;;;;;5080888;28;20507;-75
2023/03/11 02:12:05;;;;;;;12.05;1.42;;;0.00;99.90;;;;;;5116890;28;20369;-74
2023/03/11 02:14:31;;;;;;;11.13;1.73;;;0.50;99.90;;;;;;5116227;28;20079;-75
2023/03/11 02:16:58;;;;;;;14.43;1.65;;;0.40;99.90;;;;;;5098464;28;20463;-74
2023/03/11 02:19:39;;;;;;;;;;;0.30;99.90;;;;;;5081537;28;20051;-74
2023/03/11 02:22:05;;;;;;;13.80;1.73;;;-0.20;99.90;;;;;;5097446;28;20360;-74
2023/03/11 02:24:54;;;;;;;16.47;1.57;;;-0.20;99.90;;;;;;5098092;28;20460;-75
2023/03/11 02:27:22;;;;;;;12.15;1.48;;;0.30;99.90;;;;;;5115646;28;20108;-75
2023/03/11 02:29:50;;;;;;;12.65;2.20;;;0.20;99.90;;;;;;5098706;28;20168;-74
2023/03/11 02:32:18;;;;;;;11.65;1.23;;;0.10;99.90;;;;;;5081490;28;20560;-74
2023/03/11 02:34:44;;;;;;;10.57;1.45;;;0.30;99.90;;;;;;5081004;28;20047;-74
2023/03/11 02:37:13;;;;;;;13.25;1.92;;;-0.30;99.90;;;;;;5081477;28;20043;-74
2023/03/11 02:39:43;;;;;;;12.27;1.77;;;-0.10;99.90;;;;;;5098455;28;20040;-75
2023/03/11 02:42:20;;;;;;;9.05;1.60;;;-0.30;99.90;;;;;;5116059;28;20411;-75
2023/03/11 02:44:57;;;;;;;14.40;1.70;;;-0.30;99.90;;;;;;5116785;28;20515;-74
2023/03/11 02:47:24;;;;;;;15.65;1.63;;;0.00;99.90;;;;;;5116946;28;20138;-75
2023/03/11 02:49:50;;;;;;;9.40;1.42;;;-0.30;99.90;;;;;;5116766;28;20036;-74
2023/03/11 02:52:16;;;;;;;13.27;2.05;;;0.10;99.90;;;;;;5081085;28;20067;-73
2023/03/11 02:54:42;;;;;;;18.23;1.80;;;-0.30;99.90;;;;;;5115827;28;20046;-73
2023/03/11 02:57:07;;;;;;;10.32;1.40;;;0.10;99.90;;;;;;5116549;28;20138;-75
2023/03/11 02:59:33;;;;;;;17.67;1.60;;;-0.20;99.90;;;;;;5098881;28;20051;-74
2023/03/11 03:01:59;;;;;;;10.00;1.25;;;-0.10;99.90;;;;;;5082740;28;20493;-74
2023/03/11 03:04:25;;;;;;;14.13;1.42;;;-0.10;99.90;;;;;;5116170;28;20044;-75
2023/03/11 03:06:50;;;;;;;9.75;1.25;;;0.20;99.90;;;;;;5082904;28;20055;-74
2023/03/11 03:09:16;;;;;;;10.00;1.15;;;0.10;99.90;;;;;;5118045;28;20459;-75
2023/03/11 03:11:42;;;;;;;9.85;1.10;;;0.00;99.90;;;;;;5116234;28;20094;-74
2023/03/11 03:14:07;;;;;;;12.98;1.40;;;-0.50;99.90;;;;;;5097470;28;20043;-75
2023/03/11 03:16:33;;;;;;;11.70;1.25;;;-0.20;99.90;;;;;;5115385;28;20047;-75
2023/03/11 03:18:59;;;;;;;10.05;1.70;;;-0.50;99.90;;;;;;5117061;28;20124;-75
2023/03/11 03:21:24;;;;;;;9.13;1.23;;;-0.70;99.90;;;;;;5119437;28;20063;-75
2023/03/11 03:23:50;;;;;;;13.88;1.38;;;-0.70;99.90;;;;;;5117672;28;20047;-76
2023/03/11 03:26:16;;;;;;;8.18;1.38;;;-0.90;99.90;;;;;;5116899;28;20556;-74
2023/03/11 03:28:42;;;;;;;27.05;1.92;;;-0.80;99.90;;;;;;5116207;28;20043;-75
2023/03/11 03:31:09;;;;;;;10.23;1.50;;;-0.90;99.90;;;;;;5082588;28;20036;-75
2023/03/11 03:33:35;;;;;;;13.77;1.40;;;-0.70;99.90;;;;;;5115353;28;20484;-75
2023/03/11 03:36:06;;;;;;;9.85;1.25;;;-0.60;99.90;;;;;;5116309;28;20494;-74
2023/03/11 03:38:32;;;;;;;12.60;1.17;;;-0.80;99.90;;;;;;5116739;28;20076;-75
2023/03/11 03:40:57;;;;;;;26.52;1.63;;;-1.10;99.90;;;;;;5118210;28;20039;-74
2023/03/11 03:43:23;;;;;;;12.10;1.83;;;-1.00;99.90;;;;;;5116224;28;20058;-74
2023/03/11 03:46:03;;;;;;;14.90;1.55;;;-0.90;99.90;;;;;;5079897;28;20455;-74
2023/03/11 03:48:30;;;;;;;7.60;1.17;;;-1.30;99.90;;;;;;5096894;28;20495;-74
2023/03/11 03:50:56;;;;;;;10.50;1.10;;;-1.50;99.90;;;;;;5098540;28;20055;-75
2023/03/11 03:53:22;;;;;;;7.85;1.15;;;-1.40;99.90;;;;;;5116625;28;20039;-74
2023/03/11 03:55:49;;;;;;;5.85;1.50;;;-1.50;99.90;;;;;;5098149;28;20047;-76
2023/03/11 03:58:15;;;;;;;13.63;1.48;;;-1.80;99.90;;;;;;5096770;28;20411;-74
2023/03/11 04:00:41;;;;;;;12.95;1.52;;;-1.00;99.90;;;;;;5114992;28;20059;-74
2023/03/11 04:03:07;;;;;;;9.85;1.48;;;-1.70;99.90;;;;;;5080271;28;20039;-74
2023/03/11 04:05:35;;;;;;;12.93;1.60;;;-1.70;99.90;;;;;;5082221;28;20387;-80
2023/03/11 04:08:01;;;;;;;9.90;1.45;;;-1.60;99.90;;;;;;5118853;28;20042;-76
2023/03/11 04:10:27;;;;;;;14.00;1.90;;;-1.80;99.90;;;;;;5082364;28;20103;-75
2023/03/11 04:12:53;;;;;;;18.35;1.30;;;-2.00;99.90;;;;;;5101004;28;20385;-76
2023/03/11 04:15:19;;;;;;;15.98;1.70;;;-1.70;99.90;;;;;;5118960;28;20048;-75
2023/03/11 04:17:44;;;;;;;13.55;1.38;;;-2.00;99.90;;;;;;5118376;28;20067;-75
2023/03/11 04:20:10;;;;;;;12.40;1.77;;;-1.60;99.90;;;;;;5118363;28;20192;-75
2023/03/11 04:22:36;;;;;;;9.18;1.60;;;-1.80;99.90;;;;;;5065507;28;20100;-76
2023/03/11 04:25:03;;;;;;;18.95;1.92;;;-1.40;99.90;;;;;;5098545;28;20051;-74
2023/03/11 04:27:28;;;;;;;6.93;1.30;;;-1.70;99.90;;;;;;5082107;28;20433;-74
2023/03/11 04:29:54;;;;;;;8.25;1.30;;;-1.10;99.90;;;;;;5115182;28;20286;-76
2023/03/11 04:32:21;;;;;;;11.00;1.10;;;-1.80;99.90;;;;;;5117333;28;20097;-76
2023/03/11 04:34:47;;;;;;;8.52;1.40;;;-1.80;99.90;;;;;;5103403;28;20107;-75
2023/03/11 04:37:13;;;;;;;14.60;1.42;;;-1.50;99.90;;;;;;5105977;28;20051;-75
2023/03/11 04:39:39;;;;;;;8.45;1.70;;;-1.70;99.90;;;;;;5121992;28;20399;-76
2023/03/11 04:42:05;;;;;;;16.98;1.42;;;-1.90;99.90;;;;;;5086128;28;20058;-75
2023/03/11 04:44:33;;;;;;;10.07;1.40;;;-2.00;99.90;;;;;;5100723;28;20044;-74
2023/03/11 04:46:59;;;;;;;8.10;1.52;;;-2.00;99.90;;;;;;5098563;28;20372;-75
2023/03/11 04:49:25;;;;;;;8.63;1.20;;;-2.00;99.90;;;;;;5098176;28;20112;-76
2023/03/11 04:51:52;;;;;;;15.20;4.28;;;-1.90;99.90;;;;;;5079799;28;20044;-75
2023/03/11 04:54:19;;;;;;;10.52;1.35;;;-2.10;99.90;;;;;;5098842;28;20039;-76
2023/03/11 04:56:44;;;;;;;8.63;1.33;;;-2.00;99.90;;;;;;5116880;28;20171;-75
2023/03/11 04:59:10;;;;;;;27.85;1.90;;;-1.90;99.90;;;;;;5116931;28;20059;-76
2023/03/11 05:01:36;;;;;;;8.45;1.85;;;-2.00;99.90;;;;;;5101666;28;20044;-76
2023/03/11 05:04:02;;;;;;;10.27;1.50;;;-2.30;99.90;;;;;;5098902;28;20043;-75
2023/03/11 05:06:28;;;;;;;9.20;1.42;;;-2.20;99.90;;;;;;5098943;28;20484;-75
2023/03/11 05:08:53;;;;;;;8.00;1.30;;;-2.10;99.90;;;;;;5115113;28;20051;-75
2023/03/11 05:11:19;;;;;;;10.77;2.03;;;-2.30;99.90;;;;;;5114480;28;20127;-75
2023/03/11 05:13:45;;;;;;;11.00;1.48;;;-2.30;99.90;;;;;;5095905;28;20036;-76
2023/03/11 05:16:11;;;;;;;12.75;1.30;;;-2.50;99.90;;;;;;5115018;28;20429;-75
2023/03/11 05:18:36;;;;;;;9.10;1.60;;;-2.50;99.90;;;;;;5095600;28;20070;-75
2023/03/11 05:21:02;;;;;;;8.77;1.88;;;-2.50;99.90;;;;;;5113487;28;20048;-75
2023/03/11 05:23:28;;;;;;;15.13;2.13;;;-2.40;99.90;;;;;;5113409;28;20043;-75
2023/03/11 05:25:54;;;;;;;14.82;2.45;;;-2.50;99.90;;;;;;5094981;28;20105;-76
2023/03/11 05:28:19;;;;;;;15.20;3.00;;;-2.50;99.90;;;;;;5113520;28;20046;-76
2023/03/11 05:30:45;;;;;;;11.30;2.72;;;-2.60;99.90;;;;;;5078254;28;20073;-75
2023/03/11 05:33:11;;;;;;;17.25;2.78;;;-2.30;99.90;;;;;;5078194;28;20108;-75
2023/03/11 05:35:36;;;;;;;12.73;2.55;;;-2.30;99.90;;;;;;5113598;28;20035;-76
2023/03/11 05:38:02;;;;;;;12.40;3.13;;;-2.60;99.90;;;;;;5062004;28;20047;-74
2023/03/11 05:40:28;;;;;;;8.27;2.50;;;-2.60;99.90;;;;;;5113160;28;20088;-74
2023/03/11 05:42:53;;;;;;;16.65;2.85;;;-2.60;99.90;;;;;;5078228;28;20122;-75
2023/03/11 05:45:19;;;;;;;12.85;2.65;;;-2.70;99.90;;;;;;5095370;28;20391;-76
2023/03/11 05:47:45;;;;;;;9.55;2.25;;;-2.70;99.90;;;;;;5113323;28;20051;-75
2023/03/11 05:50:11;;;;;;;11.35;2.20;;;-2.70;99.90;;;;;;5112157;28;20075;-75
2023/03/11 05:52:37;;;;;;;9.63;1.88;;;-2.80;99.90;;;;;;5113126;28;20395;-76
2023/03/11 05:55:03;;;;;;;10.75;1.95;;;-2.90;99.90;;;;;;5112803;28;20048;-75
2023/03/11 05:57:29;;;;;;;7.43;1.75;;;-2.80;99.90;;;;;;5081135;28;20457;-75
2023/03/11 05:59:55;;;;;;;11.63;1.40;;;-2.90;99.90;;;;;;5116776;28;20043;-75
2023/03/11 06:02:22;;;;;;;16.08;2.47;;;-2.90;99.90;;;;;;5116893;28;20510;-74
2023/03/11 06:04:47;;;;;;;12.25;1.92;;;-2.80;99.90;;;;;;5116736;28;20050;-75
2023/03/11 06:07:15;;;;;;;8.70;1.58;;;-2.90;99.90;;;;;;5098276;28;20130;-75
2023/03/11 06:09:40;;;;;;;7.00;1.63;;;-2.80;99.90;;;;;;5098664;28;20053;-74
2023/03/11 06:12:07;;;;;;;10.43;1.90;;;-2.90;99.90;;;;;;5115931;28;20039;-75
2023/03/11 06:14:32;;;;;;;6.53;1.60;;;-2.90;99.90;;;;;;5115023;28;20040;-77
2023/03/11 06:16:58;;;;;;;11.13;1.92;;;-3.10;99.90;;;;;;5097639;28;20051;-75
2023/03/11 06:19:25;;;;;;;13.15;2.13;;;-2.90;99.90;;;;;;5116186;28;20400;-75
2023/03/11 06:21:51;;;;;;;16.15;2.35;;;-3.00;99.90;;;;;;5116002;28;20052;-79
2023/03/11 06:24:18;;;;;;;13.45;2.08;;;-3.00;99.90;;;;;;5081296;28;20122;-76
2023/03/11 06:26:43;;;;;;;12.23;3.05;;;-3.00;99.90;;;;;;5081553;28;20042;-77
2023/03/11 06:29:13;;;;;;;11.40;3.10;;;-2.80;99.90;;;;;;5097615;28;20052;-76
2023/03/11 06:31:40;;;;;;;14.48;3.10;;;-2.90;99.90;;;;;;5116054;28;20047;-76
2023/03/11 06:34:06;;;;;;;10.40;2.58;;;-2.90;99.90;;;;;;5115813;28;20086;-76
2023/03/11 06:36:32;;;;;;;13.88;2.40;;;-2.80;99.90;;;;;;5097705;28;20093;-76
2023/03/11 06:38:58;;;;;;;10.77;2.55;;;-2.80;99.90;;;;;;5080956;28;20407;-76
2023/03/11 06:41:24;;;;;;;15.40;2.97;;;-2.80;99.90;;;;;;5097922;28;20051;-77
2023/03/11 06:43:50;;;;;;;19.45;4.57;;;-2.80;99.90;;;;;;5081177;28;20055;-76
2023/03/11 06:46:21;;;;;;;28.33;5.80;;;-2.90;99.90;;;;;;5115960;28;20181;-76
2023/03/11 06:48:50;;;;;;;20.08;5.88;;;-2.70;99.90;;;;;;5098368;28;20048;-75
2023/03/11 06:51:17;;;;;;;25.40;5.53;;;-2.80;99.90;;;;;;5080913;28;20048;-76
2023/03/11 06:53:43;;;;;;;29.13;6.13;;;-2.60;99.90;;;;;;5097685;28;20044;-76
2023/03/11 06:56:13;;;;;;;24.30;4.72;;;-2.50;99.90;;;;;;5080458;28;20043;-76
2023/03/11 06:58:40;;;;;;;18.77;3.92;;;-2.50;99.90;;;;;;5080278;28;20055;-75
2023/03/11 07:01:07;;;;;;;;;;;-2.40;99.90;;;;;;5097889;28;20051;-75
2023/03/11 07:03:33;;;;;;;13.60;2.90;;;-2.50;99.90;;;;;;5097767;28;20366;-76
2023/03/11 07:05:59;;;;;;;21.60;2.25;;;-2.30;99.90;;;;;;5063767;28;20071;-77
2023/03/11 07:08:25;;;;;;;9.13;3.00;;;-2.50;99.90;;;;;;5097284;28;20101;-75
2023/03/11 07:11:06;;;;;;;20.00;3.10;;;-2.20;99.90;;;;;;5080309;28;20052;-76
2023/03/11 07:13:33;;;;;;;18.10;2.85;;;-2.30;99.90;;;;;;5115274;28;20097;-76
2023/03/11 07:16:01;;;;;;;10.45;3.28;;;-2.20;99.90;;;;;;5080509;28;20055;-76
2023/03/11 07:18:27;;;;;;;21.02;3.00;;;-2.30;99.90;;;;;;5080547;28;20053;-75
2023/03/11 07:20:53;;;;;;;17.88;2.80;;;-2.20;99.90;;;;;;5097559;28;20147;-75
2023/03/11 07:23:18;;;;;;;16.20;3.28;;;-1.90;99.90;;;;;;5097165;28;20047;-76
2023/03/11 07:25:47;;;;;;;15.93;2.55;;;-1.80;99.90;;;;;;5115489;28;20044;-76
2023/03/11 07:28:13;;;;;;;12.70;2.22;;;-1.80;99.90;;;;;;5097488;28;20078;-76
2023/03/11 07:30:39;;;;;;;14.18;2.30;;;-2.00;99.90;;;;;;5081016;28;20047;-76
2023/03/11 07:33:05;;;;;;;12.13;2.20;;;-1.90;99.90;;;;;;5115309;28;20035;-76
2023/03/11 07:35:31;;;;;;;13.82;2.60;;;-1.90;99.90;;;;;;5080565;28;20052;-76
2023/03/11 07:37:56;;;;;;;21.00;3.55;;;-1.70;99.90;;;;;;5097113;28;20044;-77
2023/03/11 07:40:22;;;;;;;13.23;2.72;;;-1.70;99.90;;;;;;5096515;28;20044;-77
2023/03/11 07:42:48;;;;;;;18.27;3.50;;;-1.70;99.90;;;;;;5079831;28;20101;-75
2023/03/11 07:45:14;;;;;;;16.70;3.22;;;-1.60;99.90;;;;;;5080077;28;20070;-75
2023/03/11 07:47:40;;;;;;;9.05;2.47;;;-1.40;99.90;;;;;;5115582;28;20055;-76
2023/03/11 07:50:05;;;;;;;15.13;3.08;;;-1.30;99.90;;;;;;5079807;28;20044;-76
2023/03/11 07:52:32;;;;;;;15.73;3.65;;;-1.40;99.90;;;;;;5114361;28;20064;-75
2023/03/11 07:54:58;;;;;;;13.60;3.15;;;-1.10;99.90;;;;;;5114293;28;20511;-77
2023/03/11 07:57:24;;;;;;;14.20;2.85;;;-1.20;99.90;;;;;;5079378;28;20060;-76
2023/03/11 07:59:50;;;;;;;16.05;2.78;;;-1.30;99.90;;;;;;5115013;28;20391;-77
2023/03/11 08:02:15;;;;;;;15.85;2.85;;;-0.90;99.90;;;;;;5096216;28;20040;-76
2023/03/11 08:04:41;;;;;;;21.38;2.92;;;-0.80;99.90;;;;;;5114193;28;20043;-76
2023/03/11 08:07:07;;;;;;;9.85;2.42;;;-0.80;99.90;;;;;;5079155;28;20051;-76
2023/03/11 08:09:35;;;;;;;11.52;2.42;;;-1.10;99.90;;;;;;5079888;28;20039;-75
2023/03/11 08:12:01;;;;;;;11.88;2.72;;;-0.80;99.90;;;;;;5096199;28;20047;-76
2023/03/11 08:14:27;;;;;;;10.65;2.67;;;-0.50;99.90;;;;;;5095586;28;20050;-76
2023/03/11 08:16:53;;;;;;;11.90;2.95;;;-0.50;99.90;;;;;;5114649;28;20048;-75
2023/03/11 08:19:18;;;;;;;14.85;2.72;;;-0.50;99.90;;;;;;5061994;28;20126;-75
2023/03/11 08:21:44;;;;;;;21.13;2.97;;;-0.60;99.90;;;;;;5114127;28;20047;-74
2023/03/11 08:24:12;;;;;;;12.13;2.85;;;-0.70;99.90;;;;;;5113757;28;20047;-76
2023/03/11 08:26:38;;;;;;;18.27;3.13;;;-0.70;99.90;;;;;;5113607;28;20065;-75
2023/03/11 08:29:04;;;;;;;14.40;3.53;;;-0.70;99.90;;;;;;5113725;28;20502;-75
2023/03/11 08:31:32;;;;;;;14.45;3.00;;;-0.60;99.90;;;;;;5114097;28;20044;-74
2023/03/11 08:34:00;;;;;;;11.35;2.95;;;-0.50;99.90;;;;;;5095357;28;20466;-75
2023/03/11 08:36:27;;;;;;;18.48;3.33;;;-0.20;99.90;;;;;;5095390;28;20043;-75
2023/03/11 08:38:52;;;;;;;12.85;3.08;;;0.00;99.90;;;;;;5114465;28;20048;-75
2023/03/11 08:41:18;;;;;;;14.13;2.60;;;-0.40;99.90;;;;;;5113425;28;20518;-74
2023/03/11 08:43:44;;;;;;;11.38;2.63;;;0.10;99.90;;;;;;5095621;28;20079;-74
2023/03/11 08:46:21;;;;;;;11.60;2.67;;;0.00;99.90;;;;;;5078583;28;20063;-75
2023/03/11 08:48:47;;;;;;;9.05;2.60;;;-0.30;99.90;;;;;;5079714;28;20067;-73
2023/03/11 08:51:13;;;;;;;8.40;2.40;;;0.00;99.90;;;;;;5113937;28;20043;-75
2023/03/11 08:53:39;;;;;;;9.93;2.30;;;0.10;99.90;;;;;;5114334;28;20051;-74
2023/03/11 08:56:05;;;;;;;11.25;3.22;;;-0.10;99.90;;;;;;5099032;28;20050;-74
2023/03/11 08:58:31;;;;;;;9.77;2.88;;;0.10;99.90;;;;;;5102072;28;20067;-74
2023/03/11 09:00:57;;;;;;;19.08;2.28;;;0.50;99.90;;;;;;5105554;28;20391;-75
2023/03/11 09:03:23;;;;;;;10.98;2.20;;;-0.20;99.90;;;;;;5102155;28;20043;-75
2023/03/11 09:05:55;;;;;;;21.63;2.85;;;0.50;99.90;;;;;;5100310;28;20054;-74
2023/03/11 09:08:20;;;;;;;12.57;2.45;;;0.40;99.90;;;;;;5098276;28;20127;-75
2023/03/11 09:10:46;;;;;;;12.88;2.17;;;0.60;99.90;;;;;;5114389;28;20126;-75
2023/03/11 09:13:12;;;;;;;14.02;2.58;;;0.10;99.90;;;;;;5095611;28;20047;-78
2023/03/11 09:15:38;;;;;;;11.32;2.08;;;0.00;99.90;;;;;;5113524;28;20062;-74
2023/03/11 09:18:04;;;;;;;12.88;2.40;;;0.00;99.90;;;;;;5113600;28;20399;-75
2023/03/11 09:20:30;;;;;;;11.40;2.20;;;0.60;99.90;;;;;;5094890;28;20058;-75
2023/03/11 09:22:56;;;;;;;6.93;2.20;;;0.50;99.90;;;;;;5078548;28;20157;-76
2023/03/11 09:25:21;;;;;;;10.88;2.17;;;0.70;99.90;;;;;;5095312;28;20050;-76
2023/03/11 09:27:47;;;;;;;11.65;2.13;;;0.00;99.90;;;;;;5095493;28;20100;-75
2023/03/11 09:30:13;;;;;;;10.93;2.22;;;0.60;99.90;;;;;;5096558;28;20046;-76
2023/03/11 09:32:39;;;;;;;13.02;2.22;;;0.00;99.90;;;;;;5081825;28;20044;-76
2023/03/11 09:35:05;;;;;;;8.13;1.92;;;0.40;99.90;;;;;;5082373;28;20043;-76
2023/03/11 09:37:31;;;;;;;17.58;2.33;;;-0.10;99.90;;;;;;5098759;28;20043;-77
2023/03/11 09:39:57;;;;;;;14.77;3.13;;;0.10;99.90;;;;;;5082410;28;20048;-76
2023/03/11 09:42:42;;;;;;;13.40;3.55;;;-0.20;99.90;;;;;;5098591;28;20100;-76
2023/03/11 09:45:26;;;;;;;13.02;3.55;;;0.40;99.90;;;;;;5116956;28;20175;-76
2023/03/11 09:48:36;;;;;;;11.30;3.25;;;0.00;99.90;;;;;;5098653;28;20073;-77
2023/03/11 09:51:14;;;;;;;14.75;4.90;;;-0.20;99.90;;;;;;5081898;28;20624;-75
2023/03/11 09:53:42;;;;;;;13.93;4.03;;;-0.20;99.90;;;;;;5098235;28;20050;-78
2023/03/11 09:56:14;;;;;;;17.77;3.67;;;-0.30;99.90;;;;;;5116538;28;20100;-77
2023/03/11 09:58:51;;;;;;;12.15;2.83;;;0.30;99.90;;;;;;5094640;28;20095;-78
2023/03/11 10:01:23;;;;;;;14.77;3.28;;;1.30;99.90;;;;;;5096404;28;20059;-76
2023/03/11 10:03:52;;;;;;;11.38;2.90;;;-0.50;99.90;;;;;;5097327;28;20040;-75
2023/03/11 10:06:23;;;;;;;11.90;2.90;;;0.80;99.90;;;;;;5095231;28;20042;-76
2023/03/11 10:09:11;;;;;;;20.65;3.67;;;-0.50;99.90;;;;;;5099134;28;20039;-75
2023/03/11 10:12:00;;;;;;;15.10;4.15;;;1.00;99.90;;;;;;5100455;28;20091;-78
2023/03/11 10:14:41;;;;;;;12.55;3.08;;;-0.60;99.90;;;;;;5103677;28;20117;-77
2023/03/11 10:17:26;;;;;;;10.63;2.53;;;-0.20;99.90;;;;;;5095824;28;20508;-75
2023/03/11 10:20:11;;;;;;;13.23;2.53;;;1.10;99.90;;;;;;5096071;28;20052;-76
2023/03/11 10:22:45;;;;;;;13.85;2.72;;;0.80;99.90;;;;;;5095669;28;20048;-76
2023/03/11 10:25:24;;;;;;;12.70;2.63;;;0.60;99.90;;;;;;5095233;28;20040;-75
2023/03/11 10:27:53;;;;;;;12.25;2.28;;;-0.50;99.90;;;;;;5096990;28;20377;-75
2023/03/11 10:30:22;;;;;;;12.82;2.47;;;-0.10;99.90;;;;;;5095157;28;20066;-76
2023/03/11 10:32:58;;;;;;;9.95;2.20;;;1.10;99.90;;;;;;5095514;28;20052;-75
2023/03/11 10:35:52;;;;;;;12.48;3.22;;;0.50;99.90;;;;;;5095399;28;20517;-76
2023/03/11 10:38:23;;;;;;;13.43;2.20;;;0.50;99.90;;;;;;5109359;28;20089;-75
2023/03/11 10:40:58;;;;;;;14.23;3.30;;;0.50;99.90;;;;;;5078160;28;20043;-74
2023/03/11 10:43:53;;;;;;;6.95;1.45;;;0.50;99.90;;;;;;5096817;28;20122;-78
2023/03/11 10:46:28;;;;;;;12.25;1.85;;;0.50;99.90;;;;;;5066919;28;20515;-75
2023/03/11 10:48:54;;;;;;;9.88;1.30;;;0.50;99.90;;;;;;5097213;28;20435;-76
2023/03/11 10:51:30;;;;;;;9.57;1.98;;;0.50;99.90;;;;;;5094756;28;20065;-76
2023/03/11 10:53:57;;;;;;;12.40;1.60;;;0.50;99.90;;;;;;5095402;28;20047;-75
2023/03/11 10:56:39;;;;;;;9.52;1.20;;;0.50;99.90;;;;;;5095503;28;20044;-75
2023/03/11 10:59:46;;;;;;;10.40;1.58;;;0.60;99.90;;;;;;5094188;28;20373;-75
2023/03/11 11:02:24;;;;;;;15.20;1.55;;;0.60;99.90;;;;;;5064613;28;20415;-75
2023/03/11 11:05:16;;;;;;;13.73;1.42;;;0.60;99.90;;;;;;5095312;28;20055;-75
2023/03/11 11:07:43;;;;;;;13.82;1.95;;;0.80;99.90;;;;;;5086450;28;20052;-73
2023/03/11 11:10:20;;;;;;;16.17;1.40;;;0.90;99.90;;;;;;5095058;28;20123;-74
2023/03/11 11:13:07;;;;;;;13.43;1.48;;;1.10;99.90;;;;;;5110573;28;20067;-74
2023/03/11 11:15:36;;;;;;;10.88;1.80;;;1.30;99.90;;;;;;5095062;28;20048;-73
2023/03/11 11:18:27;;;;;;;6.80;1.40;;;1.60;99.90;;;;;;5093574;28;20051;-74
2023/03/11 11:21:03;;;;;;;8.63;1.63;;;1.70;99.90;;;;;;5094046;28;20097;-72
2023/03/11 11:23:34;;;;;;;7.53;1.30;;;1.70;99.90;;;;;;5094549;28;20075;-76
2023/03/11 11:26:05;;;;;;;11.10;1.25;;;1.90;99.90;;;;;;5094493;28;20526;-72
2023/03/11 11:28:32;;;;;;;6.32;0.93;;;2.00;99.90;;;;;;5092752;28;20055;-74
2023/03/11 11:30:59;;;;;;;;;;;2.10;99.90;;;;;;5077067;28;20059;-73
2023/03/11 11:33:30;;;;;;;13.25;1.58;;;2.20;99.90;;;;;;5076591;28;19920;-73
2023/03/11 11:36:01;;;;;;;6.90;1.00;;;2.30;99.90;;;;;;5094876;28;20048;-73
2023/03/11 11:38:29;;;;;;;4.63;1.10;;;2.30;99.90;;;;;;5093473;28;20048;-72
2023/03/11 11:40:56;;;;;;;;;;;2.40;99.90;;;;;;5093275;28;20051;-73
2023/03/11 11:43:34;;;;;;;9.48;1.10;;;2.50;99.90;;;;;;5094486;28;19943;-74
2023/03/11 11:46:21;;;;;;;8.30;0.90;;;2.30;99.90;;;;;;5093030;28;20176;-72
2023/03/11 11:49:05;;;;;;;11.02;1.30;;;2.30;99.90;;;;;;5092756;28;20134;-72
2023/03/11 11:51:59;;;;;;;11.40;1.63;;;2.20;99.90;;;;;;5076190;28;20403;-73
2023/03/11 11:54:56;;;;;;;11.30;1.25;;;2.30;99.90;;;;;;5069234;28;20131;-72
2023/03/11 11:57:23;;;;;;;7.13;0.70;;;2.40;99.90;;;;;;5094793;28;20076;-75
2023/03/11 11:59:49;;;;;;;4.40;0.50;;;2.50;99.90;;;;;;5078696;28;20124;-73
2023/03/11 12:02:43;;;;;;;9.63;0.50;;;2.70;99.90;;;;;;5114162;28;20043;-73
2023/03/11 12:05:28;;;;;;;5.45;0.60;;;3.00;99.90;;;;;;5114378;28;20050;-73
2023/03/11 12:08:21;;;;;;;7.05;0.57;;;3.10;99.90;;;;;;5113748;28;20070;-75
2023/03/11 12:11:00;;;;;;;7.15;0.55;;;3.20;99.90;;;;;;5114001;28;20134;-74
2023/03/11 12:14:00;;;;;;;12.23;0.50;;;3.30;99.90;;;;;;5096117;28;20044;-76
2023/03/11 12:16:51;;;;;;;3.88;0.38;;;3.30;99.90;;;;;;5078761;28;20123;-76
2023/03/11 12:19:39;;;;;;;22.17;0.75;;;3.10;99.90;;;;;;5096246;28;20399;-76
2023/03/11 12:22:51;;;;;;;3.95;0.50;;;3.00;99.90;;;;;;5095210;28;20059;-77
2023/03/11 12:25:31;;;;;;;5.38;0.45;;;3.10;99.90;;;;;;5015354;28;20502;-75
2023/03/11 12:28:17;;;;;;;5.43;0.60;;;3.10;99.90;;;;;;5110917;28;20056;-78
2023/03/11 12:31:06;;;;;;;4.30;0.40;;;3.20;99.90;;;;;;5074456;28;20070;-76
2023/03/11 12:33:55;;;;;;;2.17;0.30;;;3.20;99.90;;;;;;5096179;28;20043;-77
2023/03/11 12:36:24;;;;;;;6.40;0.52;;;3.10;99.90;;;;;;5114132;28;20062;-76
2023/03/11 12:38:52;;;;;;;9.65;0.70;;;3.30;99.90;;;;;;5113685;28;20043;-78
2023/03/11 12:41:38;;;;;;;12.27;1.00;;;3.40;99.90;;;;;;5095983;28;20410;-76
2023/03/11 12:44:28;;;;;;;4.60;0.50;;;3.30;99.90;;;;;;5113619;28;20153;-75
2023/03/11 12:46:57;;;;;;;8.88;0.65;;;3.60;99.90;;;;;;5113279;28;20236;-76
2023/03/11 12:49:34;;;;;;;7.65;0.70;;;3.80;99.90;;;;;;5113246;28;20399;-74
2023/03/11 12:52:05;;;;;;;6.10;0.47;;;4.00;99.90;;;;;;5077897;28;20055;-72
2023/03/11 12:54:40;;;;;;;4.07;0.50;;;3.90;99.90;;;;;;5113350;28;20052;-73
2023/03/11 12:57:32;;;;;;;6.93;0.73;;;3.90;99.90;;;;;;5113306;28;20051;-73
2023/03/11 13:00:27;;;;;;;4.15;0.30;;;3.90;99.90;;;;;;5112828;28;20051;-73